WetterOnline ( https://www.wetteronline.de )

Wetter aktuell Groß Brütz

Aktuelles Wetter: Lübeck/Blankensee (15m)

6-stündlich | Neueste Meldungen
Ortszeit Temperatur Wetter
So, 25.08. 20:00 24.0° C fast wolkenlos
So, 25.08. 14:00 27.8° C leicht bewölkt
So, 25.08. 8:00 16.1° C wolkenlos
So, 25.08. 2:00 16.1° C wolkenlos
Sa, 24.08. 20:00 22.6° C wolkenlos
Sa, 24.08. 14:00 27.4° C wolkenlos
Sa, 24.08. 8:00 15.8° C wolkenlos
Sa, 24.08. 2:00 12.5° C leicht bewölkt
Ortszeit Temperatur Wetter
Mo, 26.08. 0:30 21.1° C wolkenlos
Mo, 26.08. 0:10 21.3° C wolkenlos
Mo, 26.08. 0:00 20.8° C wolkenlos
So, 25.08. 23:50 20.8° C wolkenlos
So, 25.08. 23:40 20.7° C wolkenlos
So, 25.08. 23:30 21.3° C wolkenlos
So, 25.08. 23:00 20.6° C wolkenlos
So, 25.08. 22:30 20.6° C leicht bewölkt
So, 25.08. 22:00 21.2° C bewölkt
So, 25.08. 21:30 21.7° C leicht bewölkt
So, 25.08. 21:00 22.0° C fast wolkenlos
Ortszeit Relative Feuchte Sichtweite
So, 25.08. 20:00 68% 45 km
So, 25.08. 14:00 50% 45 km
So, 25.08. 8:00 85% 35 km
So, 25.08. 2:00 82% 40 km
Sa, 24.08. 20:00 61% 65 km
Sa, 24.08. 14:00 45% 30 km
Sa, 24.08. 8:00 81% 28 km
Sa, 24.08. 2:00 94% 40 km
Ortszeit Relative Feuchte Sichtweite
Mo, 26.08. 0:30 64% 55 km
Mo, 26.08. 0:10 63% -
Mo, 26.08. 0:00 66% 55 km
So, 25.08. 23:50 66% -
So, 25.08. 23:40 67% -
So, 25.08. 23:30 68% 45 km
So, 25.08. 23:00 78% 40 km
So, 25.08. 22:30 84% 35 km
So, 25.08. 22:00 83% 35 km
So, 25.08. 21:30 80% 30 km
So, 25.08. 21:00 78% 24 km
Ortszeit Niederschlagsmenge Niederschlagsart
So, 25.08. 20:00 0.0 l/m2 in 12 Std. -
So, 25.08. 14:00 0.0 l/m2 in 6 Std. -
So, 25.08. 8:00 0.0 l/m2 in 12 Std. -
So, 25.08. 2:00 0.0 l/m2 in 6 Std. -
Sa, 24.08. 20:00 0.0 l/m2 in 12 Std. -
Sa, 24.08. 14:00 0.0 l/m2 in 6 Std. -
Sa, 24.08. 8:00 0.0 l/m2 in 12 Std. -
Sa, 24.08. 2:00 0.0 l/m2 in 6 Std. -
Ortszeit Niederschlagsmenge Niederschlagsart
Mo, 26.08. 0:30 0.0 l/m2 in 1 Std. -
Mo, 26.08. 0:10 keine Meldung -
Mo, 26.08. 0:00 0.0 l/m2 in 1 Std. -
So, 25.08. 23:50 keine Meldung -
So, 25.08. 23:40 keine Meldung -
So, 25.08. 23:30 0.0 l/m2 in 1 Std. -
So, 25.08. 23:00 0.0 l/m2 in 1 Std. -
So, 25.08. 22:30 0.0 l/m2 in 1 Std. -
So, 25.08. 22:00 0.0 l/m2 in 1 Std. -
So, 25.08. 21:30 0.0 l/m2 in 1 Std. -
So, 25.08. 21:00 0.0 l/m2 in 1 Std. -
Ortszeit Stärke Spitze Richtung
km/h Bft. km/h Grad Sektor
So, 25.08. 20:00 7 2 24 20° N
So, 25.08. 14:00 14 3 25 90° O
So, 25.08. 8:00 4 1 11 50° NO
So, 25.08. 2:00 4 1 22 350° N
Sa, 24.08. 20:00 15 3 31 40° NO
Sa, 24.08. 14:00 13 3 22 50° NO
Sa, 24.08. 8:00 0 0 4 - -
Sa, 24.08. 2:00 2 1 6 60° NO
Ortszeit Stärke Spitze Richtung
km/h Bft. km/h Grad Sektor
Mo, 26.08. 0:30 11 2 14 100° O
Mo, 26.08. 0:10 13 3 - 90° O
Mo, 26.08. 0:00 11 2 14 100° O
So, 25.08. 23:50 11 2 - 100° O
So, 25.08. 23:40 9 2 - 90° O
So, 25.08. 23:30 7 2 11 100° O
So, 25.08. 23:00 7 2 11 90° O
So, 25.08. 22:30 6 1 7 80° O
So, 25.08. 22:00 6 1 7 40° NO
So, 25.08. 21:30 4 1 7 10° N
So, 25.08. 21:00 4 1 11 350° N
Ortszeit Untergrenze Bedeckung Gattung
total tief tief mittel hoch
So, 25.08. 20:00 1800 m 1/8 1/8 - - -
So, 25.08. 14:00 1500 m 4/8 4/8 - - -
So, 25.08. 8:00 - 0/8 0/8 - - -
So, 25.08. 2:00 - 0/8 0/8 - - -
Sa, 24.08. 20:00 - 0/8 0/8 - - -
Sa, 24.08. 14:00 - 0/8 0/8 - - -
Sa, 24.08. 8:00 - 0/8 0/8 - - -
Sa, 24.08. 2:00 10500 m 3/8 0/8 - - -
Ortszeit Bedeckungsgrad in Achtel und Wolkenuntergrenze
Mo, 26.08. 0:30 keine Wolken
Mo, 26.08. 0:10 keine Wolken
Mo, 26.08. 0:00 keine Wolken
So, 25.08. 23:50 keine Wolken
So, 25.08. 23:40 keine Wolken
So, 25.08. 23:30 keine Wolken
So, 25.08. 23:00 keine Wolken
So, 25.08. 22:30 4(1800m)
So, 25.08. 22:00 7(1800m)
So, 25.08. 21:30 4(1800m)
So, 25.08. 21:00 1(1800m)
Ortszeit Luftdruck NN (hPa) Tendenz (hPa in 3 Std.)
So, 25.08. 20:00 1020 + 0,3
So, 25.08. 14:00 1021 - 1,1
So, 25.08. 8:00 1022 - 0,2
So, 25.08. 2:00 1023 0,0
Sa, 24.08. 20:00 1022 - 1,0
Sa, 24.08. 14:00 1025 - 1,3
Sa, 24.08. 8:00 1026 - 0,2
Sa, 24.08. 2:00 1026 0,0
Ortszeit Luftdruck NN (hPa) Tendenz (hPa in 3 Std.)
Mo, 26.08. 0:30 1021 + 0,3
Mo, 26.08. 0:10 1021 keine Meldung
Mo, 26.08. 0:00 1021 + 0,6
So, 25.08. 23:50 1021 keine Meldung
So, 25.08. 23:40 1021 keine Meldung
So, 25.08. 23:30 1021 + 0,8
So, 25.08. 23:00 1021 + 0,8
So, 25.08. 22:30 1021 + 0,8
So, 25.08. 22:00 1021 + 0,9
So, 25.08. 21:30 1021 + 0,7
So, 25.08. 21:00 1021 + 0,6
Ortszeit Schneehöhe (cm)
So, 25.08. 20:00 -
So, 25.08. 14:00 -
So, 25.08. 8:00 -
So, 25.08. 2:00 -
Sa, 24.08. 20:00 -
Sa, 24.08. 14:00 -
Sa, 24.08. 8:00 -
Sa, 24.08. 2:00 -
Ortszeit Schneehöhe (cm)
Mo, 26.08. 0:30 -
Mo, 26.08. 0:10 -
Mo, 26.08. 0:00 -
So, 25.08. 23:50 -
So, 25.08. 23:40 -
So, 25.08. 23:30 -
So, 25.08. 23:00 -
So, 25.08. 22:30 -
So, 25.08. 22:00 -
So, 25.08. 21:30 -
So, 25.08. 21:00 -
Link zu dieser Seite / Seite empfehlen

Das Wetter in ...